• Join FlightAware (Why Join?)
  • Login
  • US Flag 
11:09PM EDT


 

Airport Tracker/Info


-or-


 

Live Flight TrackerFlight Track Log ✈ ASQ5685 ✈ 23-Apr-2013 ✈ KBTV - KIAD

Flight Track Log - Related Links

Times and Time Zones

All times are in EDT time to prevent confusion due to time zone crossing. See the ASQ5685 flight status page for this flight to view local times or setup timezone preferences in your user account.

Time Position Orientation Groundspeed Altitude Reporting Facility
EDT Latitude Longitude Course Direction KTS MPH feet Rate Location/Type
02:43PM 44.3633 -73.1400 195° South 233 268 6,400  Level Boston Center
02:44PM 44.1149 -73.2807 196° South  Level FlightAware Approximate
02:44PM 44.2986 -73.1681 197° South 240 276 8,900  Level Boston Center
02:45PM 44.0272 -73.3158 196° South  Level FlightAware Approximate
02:45PM 44.2256 -73.1992 197° South 264 304 11,600  Level Boston Center
02:46PM 43.9394 -73.3509 196° South  Level FlightAware Approximate
02:46PM 44.1503 -73.2300 196° South 281 323 14,100  Level Boston Center
02:47PM 43.8515 -73.3846 195° South  Level FlightAware Approximate
02:47PM 44.0731 -73.2636 197° South 286 329 16,200  Level Boston Center
02:48PM 43.7633 -73.4172 195° South  Level FlightAware Approximate
02:48PM 43.9978 -73.2944 196° South 298 343 17,900  Level Boston Center
02:49PM 43.8975 -73.3361 197° South 304 350 20,100 1,920 Climbing Boston Center
02:50PM 43.8117 -73.3722 197° South 317 365 21,800 1,800 Climbing Boston Center
02:51PM 43.7156 -73.4139 197° South 329 379 23,700 1,140 Climbing Boston Center
02:52PM 43.6233 -73.4497 196° South 339 390 24,100 180 Climbing Boston Center
02:53PM 43.5189 -73.4908 196° South 365 420 24,100 780 Level Boston Center
02:54PM 43.4142 -73.5347 197° South 389 448 25,700 960 Climbing Boston Center
02:55PM 43.3117 -73.5758 196° South 389 448 26,100 180 Climbing Boston Center
02:56PM 43.2133 -73.6139 196° South 384 442 26,100 -60 Level Boston Center
02:57PM 43.1233 -73.6519 197° South 379 436 26,000 -60 Descending Boston Center
02:58PM 43.0272 -73.6925 197° South 379 436 26,000  Level Boston Center
02:59PM 42.9328 -73.7303 196° South 373 429 26,000  Level Boston Center
03:00PM 42.8386 -73.7708 198° South 363 418 26,000  Level Boston Center
03:01PM 42.7464 -73.8056 195° South 358 412 26,000  Level Boston Center
03:02PM 42.6542 -73.8489 199° South 358 412 26,000  Level Boston Center
03:03PM 42.5600 -73.8944 200° South 345 397 26,000  Level Boston Center
03:04PM 42.4697 -73.9347 198° South 345 397 26,000  Level Boston Center
03:05PM 42.3817 -73.9719 197° South 345 397 26,100  Climbing Boston Center
03:06PM 42.2936 -74.0119 199° South 345 397 26,000 -60 Descending Boston Center
03:07PM 42.2017 -74.0403 193° South 345 397 26,000  Level Boston Center
03:08PM 42.1078 -74.0436 182° South 340 391 26,100  Climbing Boston Center
03:09PM 42.0139 -74.0494 183° South 340 391 26,000 -60 Descending Boston Center
03:10PM 41.9200 -74.0556 183° South 340 391 26,000 -600 Level Boston Center
03:12PM 41.7194 -74.0642 182° South 357 411 24,200 -720 Descending New York Center
03:13PM 41.6133 -74.0700 182° South 378 435 24,000 -120 Descending New York Center
03:14PM 41.5214 -74.0739 182° South 378 435 24,000  Level New York Center
03:15PM 41.4192 -74.0800 183° South 378 435 24,000  Level New York Center
03:16PM 41.3169 -74.0886 184° South 373 429 24,000  Level New York Center
03:17PM 41.2128 -74.0917 181° South 373 429 24,000  Level New York Center
03:18PM 41.1242 -74.1342 200° South 345 397 24,000  Level New York Center
03:19PM 41.0689 -74.2469 237° Southwest 334 384 24,000  Level New York Center
03:20PM 41.0178 -74.3544 238° Southwest 341 392 24,000  Level New York Center
03:21PM 40.9622 -74.4669 237° Southwest 353 406 24,000  Level New York Center
03:22PM 40.9108 -74.5767 238° Southwest 358 412 24,000  Level New York Center
03:23PM 40.8736 -74.6953 247° West 358 412 24,000  Level New York Center
03:24PM 40.8339 -74.8164 247° West 358 412 24,000  Level New York Center
03:25PM 40.7986 -74.9378 249° West 358 412 24,000  Level New York Center
03:26PM 40.7508 -75.0497 241° Southwest 358 412 24,000 -300 Level New York Center
03:27PM 40.6944 -75.1614 236° Southwest 353 406 23,500 -660 Descending New York Center
03:28PM 40.6381 -75.2753 237° Southwest 370 426 22,700 -840 Descending New York Center
03:29PM 40.5817 -75.3864 236° Southwest 376 433 21,900 -840 Descending New York Center
03:30PM 40.5253 -75.5000 237° Southwest 376 433 21,100 -840 Descending New York Center
03:31PM 40.4728 -75.6083 238° Southwest 376 433 20,300 -600 Descending New York Center
03:32PM 40.4117 -75.7294 236° Southwest 376 433 20,000 -180 Descending New York Center
03:33PM 40.3569 -75.8369 236° Southwest 371 427 20,000  Level New York Center
03:34PM 40.2981 -75.9444 234° Southwest 365 420 20,000 -480 Level New York Center
03:35PM 40.2433 -76.0519 236° Southwest 360 414 19,100 -1,080 Descending New York Center
03:36PM 40.1928 -76.1539 237° Southwest 373 429 17,900 -1,320 Descending New York Center
03:38PM 40.0833 -76.3667 236° Southwest 293 337 15,000 -960 Descending Potomac TRACON
03:39PM 40.0500 -76.4667 246° West 293 337 15,000  Level Potomac TRACON
03:40PM 40.0000 -76.5500 232° Southwest 293 337 15,000  Level Potomac TRACON
03:41PM 39.9667 -76.6333 242° Southwest 307 353 15,000  Level Potomac TRACON
03:42PM 39.9167 -76.7333 237° Southwest 326 375 15,000  Level Potomac TRACON
03:43PM 39.8667 -76.8333 237° Southwest 332 382 15,000 -540 Level Potomac TRACON
03:44PM 39.8167 -76.9500 241° Southwest 350 403 14,000 -1,140 Descending Potomac TRACON
03:45PM 39.7667 -77.0500 237° Southwest 370 426 12,800 -1,260 Descending Potomac TRACON
03:46PM 39.7167 -77.1667 241° Southwest 379 436 11,700 -1,200 Descending Potomac TRACON
03:47PM 39.6667 -77.2833 241° Southwest 346 398 10,500 -960 Descending Potomac TRACON
03:48PM 39.6000 -77.3333 210° Southwest 301 346 9,800 -1,080 Descending Potomac TRACON
03:49PM 39.5167 -77.3500 189° South 269 310 8,500 -1,260 Descending Potomac TRACON
03:50PM 39.4500 -77.3667 191° South 284 327 7,300 -840 Descending Potomac TRACON
03:51PM 39.3833 -77.3667 180° South 276 318 6,900 -960 Descending Potomac TRACON
03:52PM 39.3000 -77.3667 180° South 277 319 5,500 -1,200 Descending Potomac TRACON
03:53PM 39.2167 -77.3667 180° South 258 297 4,600 -840 Descending Potomac TRACON
03:54PM 39.1667 -77.3500 166° South 271 312 4,000 -360 Descending Potomac TRACON
03:55PM 39.0833 -77.3500 180° South 273 314 4,000  Level Potomac TRACON
03:56PM 39.0000 -77.3500 180° South 275 316 4,000 -60 Level Potomac TRACON
03:57PM 38.9333 -77.3500 180° South 281 323 3,900 -60 Descending Potomac TRACON
03:58PM 38.8667 -77.3833 201° Southwest 239 275 3,900  Level Potomac TRACON